Eastern Sierra Regional Airport Bishop US
ICAO: KBIH
IATA: BIH
Category: Medium
Scheduled Services: No

Elevation: 4124 ft
TransAlt. 18000 ft.

Airport Communications:
OAKLAND CNTR:125.75
ASOS:119.025
RIVERSIDE RDO:122.6
CTAF/UNICOM:123

KBIH Zoom In..

Runways:

(A) RW 07 length 5567 ft width 100 ft
---- / hdg 75

(B) RW 12 length 7498 ft width 100 ft
---- / hdg 120

(C) RW 16 length 5600 ft width 100 ft
---- / hdg 165

(D) RW 25 length 5567 ft width 100 ft
---- / hdg 255

(E) RW 30 length 7498 ft width 100 ft
---- / hdg 300

(F) RW 34 length 5600 ft width 100 ft
---- / hdg 345

Location; KBIH
Day. 26 / Time. 13.56 Zulu
* Altimeter: 29.93
* Temperature: 14° c. 57.2°f.
* Wind from: 360° Speed 09 kn.
Dewpoint: 04° c.
Visibility: 10 Statute Miles.
Clouds: Broken 9500 ft.

KBIH 261356Z AUTO 36009KT 10SM BKN095 14/04 A2993 RMK AO2 SLP094 T01390039


Wind From 360°
Speed 09 kn.

 
 
jpsmedia.com for Web Design SOUNDCLOUD worldairports.se 2018   terms of use